createdAt,value
2023-02-13T00:00:00.621Z,54.83
2023-02-13T00:02:27.356Z,52.75
2023-02-13T00:04:55.090Z,55.42
2023-02-13T00:07:21.645Z,46.88
2023-02-13T00:09:48.499Z,34.67
2023-02-13T00:12:15.079Z,48.30
2023-02-13T00:14:41.726Z,47.47
2023-02-13T00:17:08.508Z,47.63
2023-02-13T00:19:35.130Z,45.92
2023-02-13T00:22:01.714Z,46.95
2023-02-13T00:24:28.282Z,43.17
2023-02-13T00:26:54.795Z,50.80
2023-02-13T00:29:21.394Z,34.97
2023-02-13T00:31:48.298Z,48.33
2023-02-13T00:34:14.974Z,45.00
2023-02-13T00:36:41.499Z,49.90
2023-02-13T00:39:12.100Z,51.58
2023-02-13T00:41:39.385Z,45.53
2023-02-13T00:46:32.417Z,45.78
2023-02-13T00:48:59.010Z,44.58
2023-02-13T00:51:25.585Z,45.40
2023-02-13T00:53:52.173Z,45.10
2023-02-13T00:56:18.759Z,48.47
2023-02-13T00:58:45.861Z,43.65
2023-02-13T01:03:39.400Z,43.10
2023-02-13T01:06:06.747Z,43.88
2023-02-13T01:08:33.991Z,46.15
2023-02-13T01:15:54.363Z,42.13
2023-02-13T01:18:21.214Z,42.85
2023-02-13T01:20:58.387Z,50.15
2023-02-13T01:23:25.451Z,43.72
2023-02-13T01:25:52.524Z,44.38
2023-02-13T01:28:19.241Z,41.42
2023-02-13T01:30:45.894Z,51.05
2023-02-13T01:33:12.485Z,46.33
2023-02-13T01:35:40.414Z,46.95
2023-02-13T01:38:07.481Z,47.35
2023-02-13T01:40:34.136Z,45.13
2023-02-13T01:43:00.994Z,47.63
2023-02-13T01:45:30.151Z,45.13
2023-02-13T01:48:11.130Z,48.13
2023-02-13T01:50:48.779Z,45.35
2023-02-13T01:53:21.966Z,46.05
2023-02-13T01:55:55.290Z,50.13
2023-02-13T01:58:27.409Z,49.58
2023-02-13T02:00:53.988Z,51.17
2023-02-13T02:03:33.244Z,46.40
2023-02-13T02:06:01.168Z,45.72
2023-02-13T02:08:29.618Z,46.55
2023-02-13T02:11:04.731Z,48.92
2023-02-13T02:13:31.285Z,48.80
2023-02-13T02:15:58.058Z,46.92
2023-02-13T02:18:24.958Z,55.55
2023-02-13T02:21:09.681Z,48.10
2023-02-13T02:24:03.986Z,55.58
2023-02-13T02:27:08.874Z,59.53
2023-02-13T02:30:00.091Z,59.60
2023-02-13T02:32:51.726Z,58.83
2023-02-13T02:35:25.067Z,51.67
2023-02-13T02:38:22.526Z,47.67
2023-02-13T02:41:38.795Z,45.40
2023-02-13T02:44:10.238Z,46.30
2023-02-13T02:47:05.292Z,43.88
2023-02-13T02:49:56.202Z,47.35
2023-02-13T02:52:31.549Z,46.35
2023-02-13T02:55:12.492Z,47.42
2023-02-13T02:58:06.723Z,46.42
2023-02-13T03:00:55.252Z,46.88
2023-02-13T03:03:43.540Z,44.85
2023-02-13T03:06:19.997Z,46.72
2023-02-13T03:09:12.752Z,49.67
2023-02-13T03:11:57.866Z,45.78
2023-02-13T03:14:27.472Z,46.28
2023-02-13T03:17:14.754Z,48.97
2023-02-13T03:20:12.742Z,46.53
2023-02-13T03:23:06.924Z,46.55
2023-02-13T03:25:45.551Z,48.28
2023-02-13T03:28:41.323Z,45.83
2023-02-13T03:31:26.909Z,44.00
2023-02-13T03:33:58.885Z,47.58
2023-02-13T03:37:05.281Z,49.95
2023-02-13T03:40:02.185Z,52.33
2023-02-13T03:42:45.722Z,48.60
2023-02-13T03:45:38.329Z,43.17
2023-02-13T03:48:32.070Z,44.20
2023-02-13T03:51:02.306Z,51.58
2023-02-13T03:53:35.726Z,54.60
2023-02-13T03:56:21.847Z,55.25
2023-02-13T03:59:12.313Z,64.78
2023-02-13T04:01:39.955Z,50.85
2023-02-13T04:04:15.721Z,55.70
2023-02-13T04:07:05.348Z,49.63
2023-02-13T04:09:35.502Z,52.75
2023-02-13T04:12:22.844Z,48.28
2023-02-13T04:15:04.430Z,49.58
2023-02-13T04:17:36.766Z,63.05
2023-02-13T04:20:03.891Z,90.97
2023-02-13T04:24:56.912Z,141.52
2023-02-13T04:27:26.772Z,317.73
2023-02-13T04:29:53.326Z,153.48
2023-02-13T04:32:19.836Z,90.38
2023-02-13T04:34:46.381Z,79.28
2023-02-13T04:37:13.081Z,53.17
2023-02-13T04:39:39.693Z,56.33
2023-02-13T04:42:06.282Z,100.88
2023-02-13T04:44:32.854Z,95.75
2023-02-13T04:46:59.358Z,91.10
2023-02-13T04:49:25.957Z,87.95
2023-02-13T04:51:52.741Z,84.93
2023-02-13T04:54:19.415Z,109.55
2023-02-13T04:56:45.949Z,92.20
2023-02-13T04:59:12.578Z,58.28
2023-02-13T05:01:39.208Z,49.53
2023-02-13T05:04:07.217Z,45.15
2023-02-13T05:06:33.846Z,46.90
2023-02-13T05:09:00.481Z,54.47
2023-02-13T05:11:27.103Z,63.60
2023-02-13T05:13:53.619Z,62.20
2023-02-13T05:16:20.172Z,53.75
2023-02-13T05:18:46.733Z,51.40
2023-02-13T05:21:31.648Z,53.35
2023-02-13T05:23:58.207Z,58.20
2023-02-13T05:26:24.857Z,49.22
2023-02-13T05:29:09.913Z,72.72
2023-02-13T05:31:36.613Z,66.40
2023-02-13T05:34:03.232Z,58.28
2023-02-13T05:36:29.772Z,33.08
2023-02-13T05:38:56.311Z,57.38
2023-02-13T05:41:22.857Z,49.78
2023-02-13T05:43:49.506Z,49.65
2023-02-13T05:46:16.140Z,44.17
2023-02-13T05:48:42.727Z,50.13
2023-02-13T05:51:09.623Z,52.00
2023-02-13T05:53:36.470Z,49.38
2023-02-13T05:56:05.361Z,54.10
2023-02-13T05:58:32.514Z,47.65
2023-02-13T06:03:29.589Z,64.30
2023-02-13T06:05:56.527Z,82.63
2023-02-13T06:08:23.871Z,81.20
2023-02-13T06:10:51.057Z,83.93
2023-02-13T06:13:18.108Z,90.55
2023-02-13T06:18:11.946Z,131.70
2023-02-13T06:20:38.983Z,148.70
2023-02-13T06:23:05.659Z,107.38
2023-02-13T06:25:32.166Z,96.32
2023-02-13T06:27:58.787Z,57.17
2023-02-13T06:30:25.389Z,41.80
2023-02-13T06:32:52.011Z,47.88
2023-02-13T06:35:18.656Z,45.75
2023-02-13T06:37:45.457Z,53.92
2023-02-13T06:40:13.641Z,47.30
2023-02-13T06:42:41.622Z,50.88
2023-02-13T06:45:08.925Z,55.20
2023-02-13T06:47:35.792Z,64.65
2023-02-13T06:50:02.346Z,61.00
2023-02-13T06:52:30.401Z,58.50
2023-02-13T06:54:57.086Z,63.80
2023-02-13T06:57:23.601Z,62.95
2023-02-13T06:59:50.429Z,58.05
2023-02-13T07:02:16.994Z,48.22
2023-02-13T07:04:43.608Z,52.13
2023-02-13T07:07:10.246Z,51.20
2023-02-13T07:09:36.820Z,51.33
2023-02-13T07:12:05.029Z,45.80
2023-02-13T07:14:31.670Z,68.97
2023-02-13T07:16:58.448Z,63.53
2023-02-13T07:19:25.057Z,51.67
2023-02-13T07:21:51.733Z,51.28
2023-02-13T07:24:18.303Z,67.18
2023-02-13T07:26:44.882Z,78.68
2023-02-13T07:29:12.418Z,42.35
2023-02-13T07:31:39.993Z,63.88
2023-02-13T07:34:06.778Z,51.20
2023-02-13T07:36:33.609Z,48.35
2023-02-13T07:39:00.161Z,51.20
2023-02-13T07:41:27.086Z,52.60
2023-02-13T07:43:54.666Z,67.63
2023-02-13T07:46:21.607Z,72.18
2023-02-13T07:48:48.173Z,75.47
2023-02-13T07:51:14.745Z,69.13
2023-02-13T07:53:41.328Z,89.97
2023-02-13T07:56:09.160Z,70.45
2023-02-13T07:58:36.969Z,79.05
2023-02-13T08:01:11.761Z,86.60
2023-02-13T08:03:38.772Z,79.80
2023-02-13T08:06:06.927Z,73.70
2023-02-13T08:08:33.694Z,66.72
2023-02-13T08:11:27.488Z,51.45
2023-02-13T08:13:54.194Z,68.43
2023-02-13T08:16:20.863Z,75.15
2023-02-13T08:18:47.430Z,78.00
2023-02-13T08:21:15.353Z,52.42
2023-02-13T08:23:41.961Z,62.67
2023-02-13T08:26:08.577Z,59.38
2023-02-13T08:28:35.263Z,49.00
2023-02-13T08:31:01.930Z,56.72
2023-02-13T08:33:28.518Z,60.42
2023-02-13T08:35:55.295Z,58.85
2023-02-13T08:38:21.980Z,61.50
2023-02-13T08:40:48.500Z,56.47
2023-02-13T08:43:15.035Z,63.70
2023-02-13T08:45:41.697Z,67.00
2023-02-13T08:48:08.300Z,54.70
2023-02-13T08:50:37.025Z,49.17
2023-02-13T08:53:04.477Z,60.40
2023-02-13T08:55:32.115Z,62.88
2023-02-13T08:58:02.353Z,61.58
2023-02-13T09:00:29.479Z,63.58
2023-02-13T09:02:59.977Z,59.13
2023-02-13T09:05:27.210Z,57.50
2023-02-13T09:10:20.366Z,67.38
2023-02-13T09:12:53.502Z,47.80
2023-02-13T09:15:20.164Z,64.82
2023-02-13T09:17:46.888Z,69.03
2023-02-13T09:20:14.052Z,57.13
2023-02-13T09:22:41.417Z,56.45
2023-02-13T09:30:02.446Z,52.90
2023-02-13T09:32:29.277Z,54.17
2023-02-13T09:34:55.781Z,55.67
2023-02-13T09:37:23.394Z,50.92
2023-02-13T09:42:26.995Z,53.53
2023-02-13T09:47:41.655Z,53.63
2023-02-13T09:50:16.663Z,56.03
2023-02-13T09:52:45.803Z,55.75
2023-02-13T09:55:18.268Z,60.75
2023-02-13T09:57:54.239Z,62.00
2023-02-13T10:00:29.590Z,58.47
2023-02-13T10:03:16.416Z,68.35
2023-02-13T10:06:06.298Z,58.13
2023-02-13T10:08:48.697Z,57.30
2023-02-13T10:11:33.805Z,54.70
2023-02-13T10:14:29.126Z,56.95
2023-02-13T10:17:01.350Z,58.47
2023-02-13T10:19:48.577Z,58.75
2023-02-13T10:22:20.414Z,58.95
2023-02-13T10:25:08.576Z,57.53
2023-02-13T10:27:41.624Z,55.78
2023-02-13T10:30:12.871Z,55.10
2023-02-13T10:32:42.196Z,53.30
2023-02-13T10:35:31.348Z,57.05
2023-02-13T10:37:59.890Z,56.65
2023-02-13T10:40:38.854Z,60.15
2023-02-13T10:43:09.694Z,56.10
2023-02-13T10:46:02.543Z,56.08
2023-02-13T10:48:50.970Z,55.03
2023-02-13T10:51:54.682Z,63.90
2023-02-13T10:54:39.932Z,59.38
2023-02-13T10:57:28.134Z,60.00
2023-02-13T11:00:11.770Z,58.90
2023-02-13T11:02:38.773Z,56.28
2023-02-13T11:05:22.215Z,54.60
2023-02-13T11:07:49.442Z,60.35
2023-02-13T11:10:25.197Z,51.88
2023-02-13T11:12:53.091Z,51.40
2023-02-13T11:15:33.185Z,52.83
2023-02-13T11:18:12.012Z,47.78
2023-02-13T11:20:49.323Z,53.35
2023-02-13T11:23:34.607Z,56.97
2023-02-13T11:26:03.064Z,50.67
2023-02-13T11:28:32.468Z,52.70
2023-02-13T11:31:15.543Z,53.33
2023-02-13T11:33:42.614Z,48.45
2023-02-13T11:36:14.472Z,56.00
2023-02-13T11:38:41.335Z,51.85
2023-02-13T11:41:07.878Z,52.75
2023-02-13T11:43:37.431Z,50.03
2023-02-13T11:46:17.386Z,48.67
2023-02-13T11:48:55.753Z,48.58
2023-02-13T11:51:40.191Z,51.65
2023-02-13T11:54:22.357Z,45.65
2023-02-13T11:57:06.384Z,50.28
2023-02-13T11:59:41.077Z,50.22
2023-02-13T12:02:27.443Z,51.28
2023-02-13T12:05:18.997Z,51.53
2023-02-13T12:07:46.831Z,54.85
2023-02-13T12:10:19.134Z,48.85
2023-02-13T12:12:53.719Z,49.60
2023-02-13T12:15:26.108Z,45.17
2023-02-13T12:18:16.495Z,48.65
2023-02-13T12:21:01.434Z,50.70
2023-02-13T12:23:42.771Z,46.72
2023-02-13T12:26:15.292Z,44.92
2023-02-13T12:29:10.691Z,45.22
2023-02-13T12:31:40.079Z,97.55
2023-02-13T12:34:49.488Z,45.30
2023-02-13T12:37:45.274Z,47.90
2023-02-13T12:40:17.602Z,50.33
2023-02-13T12:43:11.838Z,43.08
2023-02-13T12:45:46.888Z,41.92
2023-02-13T12:48:25.299Z,52.90
2023-02-13T12:51:13.101Z,47.83
2023-02-13T12:54:03.076Z,43.38
2023-02-13T12:56:47.239Z,40.08
2023-02-13T12:59:34.332Z,44.22
2023-02-13T13:05:15.401Z,42.17
2023-02-13T13:08:01.930Z,37.03
2023-02-13T13:10:57.638Z,56.28
2023-02-13T13:13:40.964Z,36.80
2023-02-13T13:16:31.877Z,41.13
2023-02-13T13:19:07.605Z,44.15
2023-02-13T13:21:47.007Z,46.47
2023-02-13T13:24:28.713Z,47.40
2023-02-13T13:26:57.509Z,52.05
2023-02-13T13:29:30.152Z,42.55
2023-02-13T13:32:01.957Z,41.85
2023-02-13T13:34:31.506Z,42.47
2023-02-13T13:37:11.717Z,43.58
2023-02-13T13:40:03.142Z,44.67
2023-02-13T13:42:41.635Z,50.80
2023-02-13T13:45:29.928Z,36.85
2023-02-13T13:48:24.531Z,51.95
2023-02-13T13:50:51.917Z,39.88
2023-02-13T13:55:46.903Z,40.47
2023-02-13T13:58:42.102Z,40.83
2023-02-13T14:01:15.000Z,40.53
2023-02-13T14:03:49.641Z,42.10
2023-02-13T14:06:19.444Z,44.88
2023-02-13T14:08:49.351Z,41.30
2023-02-13T14:11:37.351Z,38.75
2023-02-13T14:14:30.651Z,37.13
2023-02-13T14:16:59.652Z,37.28
2023-02-13T14:19:50.162Z,48.20
2023-02-13T14:22:19.616Z,51.53
2023-02-13T14:24:54.633Z,42.42
2023-02-13T14:27:28.450Z,38.03
2023-02-13T14:29:56.135Z,36.42
2023-02-13T14:32:34.065Z,33.75
2023-02-13T14:35:03.576Z,43.17
2023-02-13T14:37:35.817Z,53.22
2023-02-13T14:40:20.347Z,55.53
2023-02-13T14:42:54.990Z,52.65
2023-02-13T14:45:27.408Z,54.55
2023-02-13T14:47:56.555Z,48.38
2023-02-13T14:50:46.292Z,52.33
2023-02-13T14:53:21.939Z,54.45
2023-02-13T14:55:56.853Z,52.67
2023-02-13T14:58:29.391Z,42.72
2023-02-13T15:01:29.261Z,34.42
2023-02-13T15:04:06.020Z,35.15
2023-02-13T15:06:44.163Z,35.78
2023-02-13T15:09:36.080Z,39.13
2023-02-13T15:12:03.011Z,38.38
2023-02-13T15:14:37.037Z,40.00
2023-02-13T15:17:38.257Z,42.70
2023-02-13T15:20:19.449Z,36.80
2023-02-13T15:22:47.122Z,56.13
2023-02-13T15:25:29.048Z,40.33
2023-02-13T15:27:59.866Z,33.38
2023-02-13T15:30:28.498Z,32.10
2023-02-13T15:33:04.417Z,30.08
2023-02-13T15:35:37.585Z,29.63
2023-02-13T15:38:25.335Z,28.23
2023-02-13T15:40:56.913Z,26.67
2023-02-13T15:43:32.278Z,31.33
2023-02-13T15:46:20.786Z,30.67
2023-02-13T15:48:48.000Z,26.25
2023-02-13T15:51:23.942Z,25.20
2023-02-13T15:53:58.198Z,29.65
2023-02-13T15:56:26.063Z,36.53
2023-02-13T15:58:54.806Z,28.35
2023-02-13T16:01:21.796Z,24.27
2023-02-13T16:03:54.364Z,23.83
2023-02-13T16:06:21.431Z,25.55
2023-02-13T16:08:57.865Z,23.83
2023-02-13T16:11:33.255Z,24.27
2023-02-13T16:14:04.890Z,23.23
2023-02-13T16:16:36.554Z,21.90
2023-02-13T16:19:03.220Z,25.10
2023-02-13T16:21:31.438Z,23.08
2023-02-13T16:24:06.553Z,24.00
2023-02-13T16:26:42.486Z,23.30
2023-02-13T16:29:11.907Z,23.33
2023-02-13T16:31:39.882Z,23.05
2023-02-13T16:34:36.558Z,25.42
2023-02-13T16:39:32.561Z,26.90
2023-02-13T16:42:01.022Z,23.73
2023-02-13T16:44:32.713Z,25.85
2023-02-13T16:47:05.681Z,27.85
2023-02-13T16:49:35.094Z,25.33
2023-02-13T16:52:30.768Z,21.23
2023-02-13T16:55:00.295Z,24.95
2023-02-13T16:57:33.023Z,23.45
2023-02-13T17:00:23.768Z,25.70
2023-02-13T17:02:51.889Z,25.80
2023-02-13T17:05:27.320Z,18.08
2023-02-13T17:08:01.411Z,25.15
2023-02-13T17:10:37.523Z,23.27
2023-02-13T17:13:11.551Z,25.70
2023-02-13T17:15:42.123Z,26.63
2023-02-13T17:18:08.718Z,30.20
2023-02-13T17:20:36.321Z,27.02
2023-02-13T17:23:07.016Z,30.58
2023-02-13T17:25:35.781Z,30.33
2023-02-13T17:28:12.041Z,24.30
2023-02-13T17:30:38.751Z,27.90
2023-02-13T17:33:18.435Z,20.17
2023-02-13T17:35:45.004Z,31.75
2023-02-13T17:38:11.545Z,25.98
2023-02-13T17:40:38.206Z,49.17
2023-02-13T17:43:05.015Z,51.95
2023-02-13T17:45:33.791Z,28.17
2023-02-13T17:48:00.457Z,31.77
2023-02-13T17:50:29.464Z,18.52
2023-02-13T17:52:57.129Z,29.20
2023-02-13T17:55:27.331Z,26.10
2023-02-13T17:57:56.638Z,37.97
2023-02-13T18:00:25.561Z,30.00
2023-02-13T18:02:52.239Z,26.13
2023-02-13T18:05:19.518Z,24.98
2023-02-13T18:10:17.842Z,36.97
2023-02-13T18:12:45.290Z,29.55
2023-02-13T18:15:12.845Z,37.90
2023-02-13T18:17:39.862Z,34.75
2023-02-13T18:20:08.098Z,42.17
2023-02-13T18:22:34.674Z,45.40
2023-02-13T18:25:01.970Z,34.40
2023-02-13T18:29:56.273Z,56.20
2023-02-13T18:32:23.561Z,54.08
2023-02-13T18:37:18.272Z,89.50
2023-02-13T18:39:44.937Z,75.88
2023-02-13T18:42:13.346Z,51.95
2023-02-13T18:44:40.836Z,84.00
2023-02-13T18:47:07.959Z,83.35
2023-02-13T18:49:34.533Z,85.72
2023-02-13T18:52:02.312Z,60.50
2023-02-13T18:54:29.149Z,68.45
2023-02-13T18:56:55.825Z,63.38
2023-02-13T18:59:23.191Z,45.08
2023-02-13T19:01:50.831Z,63.75
2023-02-13T19:04:17.715Z,81.85
2023-02-13T19:06:45.043Z,87.90
2023-02-13T19:09:11.922Z,81.97
2023-02-13T19:11:39.533Z,78.15
2023-02-13T19:14:06.847Z,76.47
2023-02-13T19:19:03.468Z,61.38
2023-02-13T19:21:32.149Z,62.15
2023-02-13T19:23:58.992Z,85.43
2023-02-13T19:26:26.954Z,79.00
2023-02-13T19:28:54.110Z,63.05
2023-02-13T19:31:23.855Z,59.45
2023-02-13T19:33:51.455Z,64.68
2023-02-13T19:36:21.911Z,74.97
2023-02-13T19:38:54.618Z,63.13
2023-02-13T19:41:21.374Z,66.50
2023-02-13T19:43:53.497Z,74.07
2023-02-13T19:46:22.930Z,96.93
2023-02-13T19:48:50.632Z,90.72
2023-02-13T19:51:20.710Z,65.07
2023-02-13T19:53:47.883Z,65.30
2023-02-13T19:56:14.980Z,66.00
2023-02-13T19:58:42.742Z,68.30
2023-02-13T20:01:12.012Z,58.80
2023-02-13T20:03:38.690Z,60.13
2023-02-13T20:06:11.628Z,73.15
2023-02-13T20:08:38.803Z,58.85
2023-02-13T20:11:10.496Z,50.95
2023-02-13T20:13:37.755Z,47.97
2023-02-13T20:18:36.541Z,55.45
2023-02-13T20:21:12.084Z,52.47
2023-02-13T20:23:38.841Z,51.75
2023-02-13T20:26:13.732Z,52.63
2023-02-13T20:28:44.517Z,47.00
2023-02-13T20:31:13.132Z,46.72
2023-02-13T20:33:40.439Z,43.60
2023-02-13T20:38:36.411Z,39.63
2023-02-13T20:41:10.092Z,48.92
2023-02-13T20:43:37.275Z,43.65
2023-02-13T20:46:04.767Z,43.88
2023-02-13T20:48:31.469Z,41.90
2023-02-13T20:51:03.608Z,46.10
2023-02-13T20:53:31.747Z,42.65
2023-02-13T20:56:05.118Z,41.00
2023-02-13T20:58:35.208Z,40.15
2023-02-13T21:01:02.370Z,41.45
2023-02-13T21:03:29.530Z,40.72
2023-02-13T21:05:56.380Z,40.15
2023-02-13T21:08:22.982Z,46.17
2023-02-13T21:10:49.585Z,37.30
2023-02-13T21:13:16.128Z,41.40
2023-02-13T21:15:45.472Z,39.30
2023-02-13T21:18:12.013Z,40.75
2023-02-13T21:20:38.569Z,43.05
2023-02-13T21:23:05.436Z,36.80
2023-02-13T21:25:34.029Z,38.22
2023-02-13T21:28:00.579Z,35.83
2023-02-13T21:30:27.351Z,37.83
2023-02-13T21:32:53.906Z,68.88
2023-02-13T21:35:20.436Z,67.28
2023-02-13T21:37:46.959Z,33.95
2023-02-13T21:40:13.566Z,38.95
2023-02-13T21:42:40.134Z,36.72
2023-02-13T21:45:07.104Z,45.63
2023-02-13T21:47:34.320Z,48.15
2023-02-13T21:52:27.434Z,66.15
2023-02-13T21:54:53.980Z,32.53
2023-02-13T21:57:20.549Z,39.22
2023-02-13T21:59:47.098Z,48.35
2023-02-13T22:02:13.755Z,67.18
2023-02-13T22:04:42.213Z,76.72
2023-02-13T22:07:08.784Z,61.63
2023-02-13T22:09:35.448Z,58.70
2023-02-13T22:12:03.798Z,57.22
2023-02-13T22:14:30.351Z,62.58
2023-02-13T22:16:57.567Z,58.85
2023-02-13T22:21:50.830Z,76.20
2023-02-13T22:24:17.421Z,65.13
2023-02-13T22:26:47.146Z,61.58
2023-02-13T22:29:16.010Z,62.78
2023-02-13T22:31:42.776Z,69.10
2023-02-13T22:34:12.377Z,61.65
2023-02-13T22:36:39.206Z,66.00
2023-02-13T22:39:07.266Z,71.15
2023-02-13T22:41:34.092Z,76.63
2023-02-13T22:44:00.696Z,83.05
2023-02-13T22:46:30.123Z,77.95
2023-02-13T22:48:57.958Z,70.43
2023-02-13T22:51:29.755Z,66.97
2023-02-13T22:53:58.113Z,75.82
2023-02-13T22:56:26.175Z,73.75
2023-02-13T22:58:53.083Z,76.78
2023-02-13T23:01:21.682Z,74.95
2023-02-13T23:03:48.277Z,62.17
2023-02-13T23:06:15.910Z,66.32
2023-02-13T23:08:43.367Z,72.78
2023-02-13T23:11:33.336Z,70.88
2023-02-13T23:14:00.358Z,82.75
2023-02-13T23:16:27.680Z,83.65
2023-02-13T23:18:58.068Z,85.65
2023-02-13T23:21:25.782Z,74.90
2023-02-13T23:23:52.566Z,69.97
2023-02-13T23:26:19.658Z,91.32
2023-02-13T23:28:46.186Z,77.88
2023-02-13T23:31:12.909Z,78.82
2023-02-13T23:33:39.600Z,71.40
2023-02-13T23:36:06.915Z,65.97
2023-02-13T23:38:33.538Z,70.95
2023-02-13T23:41:08.148Z,66.57
2023-02-13T23:43:35.058Z,77.68
2023-02-13T23:46:06.936Z,62.33
2023-02-13T23:48:34.412Z,63.42
2023-02-13T23:51:02.061Z,67.88
2023-02-13T23:53:29.030Z,63.92
2023-02-13T23:55:55.766Z,65.15
2023-02-13T23:58:22.337Z,59.05
